createdAt,value
2022-08-22T00:02:32.907Z,93.63
2022-08-22T00:02:46.231Z,75.39
2022-08-22T00:02:46.944Z,83.23
2022-08-22T00:02:58.682Z,85.23
2022-08-22T00:03:04.983Z,79.22
2022-08-22T00:03:08.058Z,81.50
2022-08-22T00:05:07.367Z,94.04
2022-08-22T00:07:47.184Z,94.02
2022-08-22T00:10:25.464Z,94.83
2022-08-22T00:13:04.653Z,94.75
2022-08-22T00:15:43.148Z,94.49
2022-08-22T00:18:16.804Z,94.45
2022-08-22T00:20:50.553Z,94.31
2022-08-22T00:23:23.784Z,94.94
2022-08-22T00:25:57.377Z,95.36
2022-08-22T00:28:32.906Z,95.21
2022-08-22T00:31:09.195Z,95.50
2022-08-22T00:33:46.256Z,95.58
2022-08-22T00:36:20.757Z,95.21
2022-08-22T00:38:54.872Z,94.73
2022-08-22T00:41:37.190Z,95.32
2022-08-22T00:44:32.565Z,95.88
2022-08-22T00:47:12.856Z,96.37
2022-08-22T00:49:55.897Z,96.38
2022-08-22T00:52:55.233Z,95.05
2022-08-22T00:55:35.884Z,95.14
2022-08-22T00:58:42.415Z,95.41
2022-08-22T01:01:15.703Z,96.00
2022-08-22T01:04:28.706Z,95.71
2022-08-22T01:07:11.252Z,95.29
2022-08-22T01:09:52.418Z,96.35
2022-08-22T01:12:39.901Z,96.72
2022-08-22T01:15:11.633Z,96.61
2022-08-22T01:18:29.757Z,97.19
2022-08-22T01:21:34.147Z,97.22
2022-08-22T01:25:00.784Z,97.22
2022-08-22T01:27:58.929Z,97.53
2022-08-22T01:30:47.933Z,97.03
2022-08-22T01:33:45.523Z,97.16
2022-08-22T01:36:32.272Z,98.62
2022-08-22T01:39:21.436Z,98.75
2022-08-22T01:42:15.346Z,98.46
2022-08-22T01:45:16.734Z,98.11
2022-08-22T01:47:56.532Z,98.68
2022-08-22T01:50:30.426Z,98.20
2022-08-22T01:53:06.998Z,99.02
2022-08-22T01:55:43.803Z,99.09
2022-08-22T01:58:17.740Z,99.13
2022-08-22T02:01:19.297Z,98.58
2022-08-22T02:04:00.549Z,97.77
2022-08-22T02:06:39.701Z,98.59
2022-08-22T02:09:15.657Z,98.97
2022-08-22T02:11:50.519Z,99.22
2022-08-22T02:14:30.642Z,99.42
2022-08-22T02:17:15.057Z,100.00
2022-08-22T02:19:51.037Z,100.00
2022-08-22T02:22:29.572Z,100.00
2022-08-22T02:25:08.919Z,100.00
2022-08-22T02:27:52.152Z,100.00
2022-08-22T02:30:23.040Z,100.00
2022-08-22T02:33:01.150Z,100.00
2022-08-22T02:35:35.740Z,100.00
2022-08-22T02:38:16.830Z,100.00
2022-08-22T02:40:54.555Z,100.00
2022-08-22T02:43:28.633Z,100.00
2022-08-22T02:46:03.602Z,100.00
2022-08-22T02:48:40.487Z,100.00
2022-08-22T02:51:16.512Z,100.00
2022-08-22T02:53:52.751Z,100.00
2022-08-22T02:56:27.878Z,100.00
2022-08-22T02:59:00.122Z,100.00
2022-08-22T03:01:40.861Z,100.00
2022-08-22T03:04:47.238Z,100.00
2022-08-22T03:07:27.016Z,100.00
2022-08-22T03:10:07.563Z,100.00
2022-08-22T03:12:45.584Z,99.79
2022-08-22T03:15:23.577Z,100.00
2022-08-22T03:17:57.272Z,100.00
2022-08-22T03:20:43.563Z,100.00
2022-08-22T03:23:21.930Z,100.00
2022-08-22T03:25:57.468Z,100.00
2022-08-22T03:28:32.884Z,100.00
2022-08-22T03:31:12.327Z,100.00
2022-08-22T03:33:40.682Z,100.00
2022-08-22T03:36:23.222Z,100.00
2022-08-22T03:39:08.781Z,100.00
2022-08-22T03:42:09.872Z,100.00
2022-08-22T03:45:08.056Z,100.00
2022-08-22T03:48:12.526Z,100.00
2022-08-22T03:51:04.815Z,100.00
2022-08-22T03:53:53.077Z,100.00
2022-08-22T03:56:42.376Z,100.00
2022-08-22T03:59:30.924Z,100.00
2022-08-22T04:02:42.222Z,100.00
2022-08-22T04:05:42.030Z,100.00
2022-08-22T04:08:37.543Z,100.00
2022-08-22T04:11:41.345Z,100.00
2022-08-22T04:14:39.713Z,100.00
2022-08-22T04:17:51.040Z,100.00
2022-08-22T04:20:41.502Z,100.00
2022-08-22T04:23:30.889Z,100.00
2022-08-22T04:26:10.739Z,100.00
2022-08-22T04:28:46.134Z,100.00
2022-08-22T04:31:17.255Z,100.00
2022-08-22T04:33:50.618Z,100.00
2022-08-22T04:36:24.857Z,100.00
2022-08-22T04:39:00.753Z,100.00
2022-08-22T04:41:47.239Z,100.00
2022-08-22T04:44:20.235Z,100.00
2022-08-22T04:46:55.423Z,100.00
2022-08-22T04:49:38.017Z,100.00
2022-08-22T04:52:14.082Z,100.00
2022-08-22T04:54:54.593Z,100.00
2022-08-22T04:57:32.575Z,100.00
2022-08-22T05:00:02.599Z,100.00
2022-08-22T05:02:31.216Z,98.09
2022-08-22T05:05:04.345Z,97.89
2022-08-22T05:07:36.555Z,97.72
2022-08-22T05:10:12.005Z,98.28
2022-08-22T05:12:44.784Z,98.46
2022-08-22T05:15:23.225Z,98.14
2022-08-22T05:17:54.817Z,97.84
2022-08-22T05:20:27.275Z,96.11
2022-08-22T05:22:59.358Z,95.63
2022-08-22T05:25:32.220Z,96.97
2022-08-22T05:28:13.239Z,98.16
2022-08-22T05:30:41.968Z,100.00
2022-08-22T05:33:27.567Z,100.00
2022-08-22T05:36:03.625Z,100.00
2022-08-22T05:38:35.413Z,99.89
2022-08-22T05:41:07.481Z,99.59
2022-08-22T05:43:40.153Z,98.78
2022-08-22T05:46:17.834Z,96.55
2022-08-22T05:48:55.506Z,95.41
2022-08-22T05:51:31.298Z,95.14
2022-08-22T05:54:12.193Z,96.00
2022-08-22T05:56:46.061Z,94.16
2022-08-22T05:59:24.669Z,94.08
2022-08-22T06:02:03.244Z,95.21
2022-08-22T06:04:37.153Z,97.70
2022-08-22T06:07:13.780Z,98.94
2022-08-22T06:10:08.376Z,96.85
2022-08-22T06:12:43.147Z,96.78
2022-08-22T06:15:21.070Z,98.33
2022-08-22T06:17:51.714Z,97.60
2022-08-22T06:20:22.332Z,97.62
2022-08-22T06:22:55.266Z,96.19
2022-08-22T06:25:26.819Z,96.97
2022-08-22T06:27:56.685Z,97.12
2022-08-22T06:30:29.264Z,98.44
2022-08-22T06:33:03.964Z,96.78
2022-08-22T06:35:50.710Z,95.68
2022-08-22T06:38:21.490Z,94.87
2022-08-22T06:40:50.949Z,95.66
2022-08-22T06:43:19.716Z,97.25
2022-08-22T06:45:48.609Z,97.80
2022-08-22T06:48:20.233Z,99.18
2022-08-22T06:50:54.521Z,99.88
2022-08-22T06:53:28.338Z,100.00
2022-08-22T06:55:57.873Z,98.75
2022-08-22T06:58:34.131Z,99.59
2022-08-22T07:01:12.317Z,98.79
2022-08-22T07:03:45.112Z,97.59
2022-08-22T07:06:17.195Z,97.43
2022-08-22T07:08:47.487Z,95.75
2022-08-22T07:11:18.561Z,94.89
2022-08-22T07:13:52.542Z,94.95
2022-08-22T07:16:29.878Z,95.34
2022-08-22T07:18:58.729Z,97.87
2022-08-22T07:21:30.160Z,96.80
2022-08-22T07:24:02.496Z,95.26
2022-08-22T07:26:38.227Z,93.75
2022-08-22T07:29:12.042Z,90.92
2022-08-22T07:31:46.756Z,89.81
2022-08-22T07:34:33.379Z,89.16
2022-08-22T07:37:08.302Z,88.21
2022-08-22T07:39:43.961Z,87.57
2022-08-22T07:42:15.775Z,85.15
2022-08-22T07:45:06.825Z,84.28
2022-08-22T07:47:53.358Z,83.02
2022-08-22T07:50:25.582Z,81.16
2022-08-22T07:52:59.022Z,82.79
2022-08-22T07:55:28.668Z,81.86
2022-08-22T07:57:59.372Z,83.13
2022-08-22T08:00:28.957Z,81.92
2022-08-22T08:03:00.365Z,80.47
2022-08-22T08:05:32.244Z,79.69
2022-08-22T08:08:03.711Z,76.27
2022-08-22T08:10:35.500Z,76.12
2022-08-22T08:13:08.774Z,76.85
2022-08-22T08:15:40.286Z,76.85
2022-08-22T08:18:14.237Z,73.39
2022-08-22T08:20:42.386Z,75.30
2022-08-22T08:23:19.500Z,73.50
2022-08-22T08:26:01.353Z,68.81
2022-08-22T08:28:35.074Z,70.65
2022-08-22T08:31:14.681Z,71.59
2022-08-22T08:33:47.246Z,71.42
2022-08-22T08:36:33.685Z,71.32
2022-08-22T08:39:14.110Z,68.11
2022-08-22T08:42:25.960Z,71.62
2022-08-22T08:45:24.874Z,65.77
2022-08-22T08:48:17.448Z,64.21
2022-08-22T08:51:02.868Z,60.57
2022-08-22T08:54:05.156Z,61.45
2022-08-22T08:56:39.377Z,62.48
2022-08-22T08:59:27.683Z,60.88
2022-08-22T09:02:20.698Z,60.19
2022-08-22T09:05:19.513Z,59.44
2022-08-22T09:08:24.743Z,60.07
2022-08-22T09:11:46.378Z,56.40
2022-08-22T09:14:29.789Z,57.57
2022-08-22T09:17:27.216Z,54.34
2022-08-22T09:20:20.107Z,51.68
2022-08-22T09:23:33.414Z,51.40
2022-08-22T09:26:12.752Z,51.38
2022-08-22T09:28:47.951Z,54.95
2022-08-22T09:31:48.096Z,51.38
2022-08-22T09:34:28.848Z,53.10
2022-08-22T09:37:14.415Z,52.82
2022-08-22T09:39:53.737Z,49.72
2022-08-22T09:42:32.532Z,51.47
2022-08-22T09:45:34.262Z,49.60
2022-08-22T09:48:11.368Z,49.08
2022-08-22T09:50:54.588Z,44.98
2022-08-22T09:53:45.145Z,46.92
2022-08-22T09:56:21.042Z,43.92
2022-08-22T09:59:02.466Z,43.82
2022-08-22T10:01:35.355Z,43.79
2022-08-22T10:04:45.883Z,44.06
2022-08-22T10:07:33.276Z,44.73
2022-08-22T10:10:11.530Z,44.45
2022-08-22T10:12:50.959Z,44.00
2022-08-22T10:15:24.270Z,44.33
2022-08-22T10:18:04.968Z,44.13
2022-08-22T10:20:46.634Z,42.83
2022-08-22T10:23:22.180Z,41.59
2022-08-22T10:25:54.732Z,43.10
2022-08-22T10:28:37.832Z,43.64
2022-08-22T10:31:19.131Z,42.12
2022-08-22T10:34:00.482Z,41.74
2022-08-22T10:36:37.436Z,42.59
2022-08-22T10:39:11.608Z,42.14
2022-08-22T10:42:01.717Z,40.99
2022-08-22T10:44:40.102Z,40.76
2022-08-22T10:47:14.981Z,41.97
2022-08-22T10:49:51.588Z,42.94
2022-08-22T10:52:25.062Z,42.99
2022-08-22T10:55:01.422Z,41.12
2022-08-22T10:57:52.960Z,41.50
2022-08-22T11:00:38.383Z,41.01
2022-08-22T11:03:21.855Z,40.94
2022-08-22T11:05:54.335Z,42.09
2022-08-22T11:08:37.243Z,41.80
2022-08-22T11:11:39.195Z,42.80
2022-08-22T11:14:36.782Z,42.18
2022-08-22T11:17:30.846Z,45.96
2022-08-22T11:20:16.949Z,43.79
2022-08-22T11:23:06.418Z,43.42
2022-08-22T11:25:52.439Z,43.43
2022-08-22T11:28:57.901Z,41.15
2022-08-22T11:31:51.961Z,42.86
2022-08-22T11:34:38.962Z,41.43
2022-08-22T11:37:13.852Z,41.96
2022-08-22T11:39:47.612Z,40.92
2022-08-22T11:42:29.554Z,41.25
2022-08-22T11:45:01.334Z,41.92
2022-08-22T11:47:35.206Z,40.16
2022-08-22T11:50:14.742Z,40.18
2022-08-22T11:53:04.761Z,38.36
2022-08-22T11:55:42.923Z,38.70
2022-08-22T11:58:28.752Z,38.30
2022-08-22T12:01:03.395Z,38.84
2022-08-22T12:03:50.998Z,40.03
2022-08-22T12:06:59.200Z,40.64
2022-08-22T12:09:38.668Z,39.51
2022-08-22T12:12:21.829Z,41.52
2022-08-22T12:14:59.231Z,38.63
2022-08-22T12:17:55.043Z,36.33
2022-08-22T12:20:45.520Z,38.02
2022-08-22T12:23:43.453Z,36.18
2022-08-22T12:26:27.462Z,35.88
2022-08-22T12:29:16.909Z,34.91
2022-08-22T12:32:12.946Z,36.77
2022-08-22T12:34:52.462Z,35.84
2022-08-22T12:37:26.441Z,35.95
2022-08-22T12:40:26.388Z,37.66
2022-08-22T12:43:27.790Z,36.24
2022-08-22T12:46:16.156Z,37.46
2022-08-22T12:49:07.684Z,35.16
2022-08-22T12:51:55.784Z,35.79
2022-08-22T12:54:59.817Z,37.17
2022-08-22T12:57:40.395Z,34.47
2022-08-22T13:00:26.789Z,34.25
2022-08-22T13:02:56.068Z,34.50
2022-08-22T13:05:28.306Z,34.56
2022-08-22T13:08:02.350Z,34.28
2022-08-22T13:10:42.138Z,35.03
2022-08-22T13:13:16.968Z,34.05
2022-08-22T13:15:58.872Z,35.52
2022-08-22T13:18:36.158Z,36.22
2022-08-22T13:21:14.509Z,35.38
2022-08-22T13:23:47.059Z,36.24
2022-08-22T13:26:31.811Z,35.38
2022-08-22T13:29:25.212Z,35.60
2022-08-22T13:31:59.043Z,34.36
2022-08-22T13:34:39.619Z,35.06
2022-08-22T13:37:16.693Z,34.49
2022-08-22T13:39:49.074Z,35.58
2022-08-22T13:42:27.898Z,34.72
2022-08-22T13:45:02.634Z,35.71
2022-08-22T13:47:34.516Z,35.14
2022-08-22T13:50:12.349Z,34.13
2022-08-22T13:52:52.566Z,34.77
2022-08-22T13:55:31.819Z,35.26
2022-08-22T13:58:07.573Z,34.75
2022-08-22T14:01:05.516Z,36.05
2022-08-22T14:03:40.975Z,34.36
2022-08-22T14:06:37.029Z,32.69
2022-08-22T14:09:17.347Z,33.52
2022-08-22T14:12:11.935Z,32.48
2022-08-22T14:14:42.611Z,33.72
2022-08-22T14:17:17.693Z,33.06
2022-08-22T14:19:58.600Z,33.16
2022-08-22T14:22:31.694Z,33.92
2022-08-22T14:25:07.898Z,35.36
2022-08-22T14:27:39.980Z,33.28
2022-08-22T14:30:15.847Z,33.90
2022-08-22T14:32:50.180Z,34.09
2022-08-22T14:35:34.754Z,35.01
2022-08-22T14:38:27.140Z,34.53
2022-08-22T14:41:03.264Z,34.26
2022-08-22T14:43:56.897Z,35.82
2022-08-22T14:46:29.970Z,33.71
2022-08-22T14:49:26.953Z,34.20
2022-08-22T14:52:06.579Z,34.00
2022-08-22T14:54:37.892Z,34.47
2022-08-22T14:57:20.114Z,35.45
2022-08-22T14:59:51.241Z,35.38
2022-08-22T15:02:27.603Z,35.97
2022-08-22T15:04:57.170Z,33.75
2022-08-22T15:07:30.986Z,35.30
2022-08-22T15:10:03.601Z,35.81
2022-08-22T15:12:38.797Z,35.31
2022-08-22T15:15:11.937Z,35.40
2022-08-22T15:17:44.650Z,34.51
2022-08-22T15:20:27.588Z,34.01
2022-08-22T15:22:59.797Z,34.21
2022-08-22T15:25:31.440Z,34.86
2022-08-22T15:28:05.711Z,34.45
2022-08-22T15:30:44.595Z,34.33
2022-08-22T15:33:18.852Z,34.32
2022-08-22T15:35:48.224Z,34.57
2022-08-22T15:38:29.487Z,34.25
2022-08-22T15:41:18.766Z,34.59
2022-08-22T15:43:49.926Z,34.61
2022-08-22T15:46:29.819Z,34.21
2022-08-22T15:49:02.653Z,34.29
2022-08-22T15:51:40.612Z,34.48
2022-08-22T15:54:24.993Z,34.62
2022-08-22T15:57:16.535Z,34.56
2022-08-22T15:59:55.856Z,33.89
2022-08-22T16:02:30.076Z,33.62
2022-08-22T16:05:22.974Z,34.98
2022-08-22T16:08:02.683Z,37.02
2022-08-22T16:10:35.805Z,37.18
2022-08-22T16:13:15.997Z,35.32
2022-08-22T16:16:01.284Z,37.18
2022-08-22T16:19:10.374Z,35.96
2022-08-22T16:22:05.662Z,36.68
2022-08-22T16:24:55.811Z,36.04
2022-08-22T16:27:28.021Z,36.45
2022-08-22T16:30:08.856Z,36.50
2022-08-22T16:32:37.786Z,36.55
2022-08-22T16:35:06.223Z,36.70
2022-08-22T16:37:48.865Z,35.97
2022-08-22T16:40:23.837Z,36.17
2022-08-22T16:43:12.085Z,35.34
2022-08-22T16:45:44.730Z,35.95
2022-08-22T16:48:35.470Z,36.33
2022-08-22T16:51:10.734Z,36.99
2022-08-22T16:54:08.705Z,36.67
2022-08-22T16:57:05.850Z,37.14
2022-08-22T17:00:00.570Z,37.30
2022-08-22T17:02:46.964Z,36.52
2022-08-22T17:05:41.194Z,36.93
2022-08-22T17:08:35.166Z,36.85
2022-08-22T17:11:13.717Z,37.25
2022-08-22T17:14:03.938Z,37.20
2022-08-22T17:16:53.393Z,37.66
2022-08-22T17:19:29.781Z,37.94
2022-08-22T17:22:02.208Z,38.00
2022-08-22T17:24:38.493Z,39.82
2022-08-22T17:27:17.823Z,41.91
2022-08-22T17:29:59.185Z,39.32
2022-08-22T17:32:35.989Z,37.52
2022-08-22T17:35:17.501Z,37.90
2022-08-22T17:37:56.191Z,37.25
2022-08-22T17:40:37.398Z,37.35
2022-08-22T17:43:16.741Z,37.49
2022-08-22T17:46:02.180Z,37.17
2022-08-22T17:48:36.008Z,38.68
2022-08-22T17:51:16.895Z,38.79
2022-08-22T17:53:49.316Z,38.58
2022-08-22T17:56:23.751Z,38.01
2022-08-22T17:59:01.595Z,39.53
2022-08-22T18:01:50.219Z,41.75
2022-08-22T18:04:26.134Z,41.97
2022-08-22T18:07:01.937Z,41.62
2022-08-22T18:09:38.419Z,41.74
2022-08-22T18:12:22.289Z,40.99
2022-08-22T18:14:54.778Z,40.67
2022-08-22T18:17:31.549Z,41.08
2022-08-22T18:20:05.476Z,40.12
2022-08-22T18:22:41.217Z,40.14
2022-08-22T18:25:30.447Z,39.65
2022-08-22T18:28:04.837Z,40.85
2022-08-22T18:30:37.817Z,39.99
2022-08-22T18:33:13.508Z,40.80
2022-08-22T18:35:49.783Z,41.76
2022-08-22T18:38:29.559Z,41.75
2022-08-22T18:41:04.761Z,41.66
2022-08-22T18:43:38.688Z,41.98
2022-08-22T18:46:32.936Z,41.58
2022-08-22T18:49:15.952Z,42.34
2022-08-22T18:51:45.710Z,43.92
2022-08-22T18:54:38.143Z,45.12
2022-08-22T18:57:30.873Z,45.45
2022-08-22T19:00:08.539Z,43.13
2022-08-22T19:03:04.651Z,42.76
2022-08-22T19:06:09.026Z,42.97
2022-08-22T19:09:02.032Z,43.57
2022-08-22T19:11:47.214Z,44.30
2022-08-22T19:14:34.661Z,44.36
2022-08-22T19:17:58.762Z,44.92
2022-08-22T19:20:47.353Z,46.57
2022-08-22T19:23:49.073Z,48.00
2022-08-22T19:26:30.917Z,45.92
2022-08-22T19:29:02.281Z,46.92
2022-08-22T19:31:48.043Z,45.78
2022-08-22T19:34:22.086Z,46.59
2022-08-22T19:37:33.150Z,49.10
2022-08-22T19:40:09.056Z,50.91
2022-08-22T19:42:40.153Z,51.38
2022-08-22T19:45:19.889Z,52.56
2022-08-22T19:48:00.169Z,52.83
2022-08-22T19:50:35.401Z,52.46
2022-08-22T19:53:28.726Z,50.99
2022-08-22T19:56:08.239Z,57.40
2022-08-22T19:58:52.340Z,57.36
2022-08-22T20:01:47.020Z,55.85
2022-08-22T20:04:38.207Z,56.34
2022-08-22T20:07:16.571Z,55.83
2022-08-22T20:09:54.176Z,55.93
2022-08-22T20:12:33.089Z,54.83
2022-08-22T20:15:13.216Z,53.80
2022-08-22T20:17:43.384Z,54.61
2022-08-22T20:20:35.962Z,56.80
2022-08-22T20:23:12.824Z,50.04
2022-08-22T20:25:49.443Z,53.79
2022-08-22T20:28:35.522Z,50.61
2022-08-22T20:31:08.526Z,49.92
2022-08-22T20:33:40.085Z,49.20
2022-08-22T20:36:27.094Z,49.37
2022-08-22T20:39:01.327Z,49.05
2022-08-22T20:41:35.692Z,49.05
2022-08-22T20:44:13.471Z,50.81
2022-08-22T20:46:53.361Z,50.63
2022-08-22T20:49:26.187Z,49.22
2022-08-22T20:51:57.820Z,50.48
2022-08-22T20:54:28.742Z,50.57
2022-08-22T20:57:00.050Z,49.05
2022-08-22T20:59:36.996Z,48.81
2022-08-22T21:02:12.485Z,49.15
2022-08-22T21:05:02.084Z,49.02
2022-08-22T21:07:33.177Z,49.93
2022-08-22T21:10:23.185Z,49.85
2022-08-22T21:13:12.399Z,50.94
2022-08-22T21:15:45.231Z,49.71
2022-08-22T21:18:15.708Z,49.36
2022-08-22T21:20:43.986Z,50.43
2022-08-22T21:23:15.288Z,50.43
2022-08-22T21:25:56.658Z,50.67
2022-08-22T21:28:30.581Z,50.61
2022-08-22T21:31:01.780Z,50.05
2022-08-22T21:33:29.866Z,51.00
2022-08-22T21:36:00.809Z,51.57
2022-08-22T21:38:29.189Z,52.33
2022-08-22T21:41:04.598Z,52.96
2022-08-22T21:43:38.018Z,53.00
2022-08-22T21:46:08.849Z,53.09
2022-08-22T21:48:41.294Z,54.28
2022-08-22T21:51:23.554Z,54.74
2022-08-22T21:54:03.728Z,58.53
2022-08-22T21:56:39.947Z,58.53
2022-08-22T21:59:25.504Z,57.58
2022-08-22T22:01:56.074Z,56.41
2022-08-22T22:04:24.783Z,56.54
2022-08-22T22:06:52.763Z,56.07
2022-08-22T22:09:20.763Z,57.51
2022-08-22T22:11:48.735Z,57.86
2022-08-22T22:14:16.635Z,57.26
2022-08-22T22:16:44.883Z,57.53
2022-08-22T22:19:14.319Z,57.75
2022-08-22T22:21:42.223Z,57.24
2022-08-22T22:24:10.251Z,57.59
2022-08-22T22:26:38.333Z,58.29
2022-08-22T22:29:07.811Z,58.56
2022-08-22T22:31:36.887Z,58.24
2022-08-22T22:34:05.167Z,59.13
2022-08-22T22:36:35.537Z,60.89
2022-08-22T22:39:05.588Z,59.86
2022-08-22T22:41:33.912Z,59.64
2022-08-22T22:44:02.008Z,60.05
2022-08-22T22:46:30.815Z,59.25
2022-08-22T22:48:59.297Z,56.82
2022-08-22T22:51:27.617Z,57.00
2022-08-22T22:53:58.399Z,57.54
2022-08-22T22:56:26.678Z,57.96
2022-08-22T22:59:00.812Z,58.07
2022-08-22T23:02:02.267Z,58.63
2022-08-22T23:04:30.647Z,59.68
2022-08-22T23:06:58.632Z,58.53
2022-08-22T23:09:38.335Z,58.92
2022-08-22T23:12:13.039Z,59.34
2022-08-22T23:14:41.223Z,57.31
2022-08-22T23:17:09.391Z,58.37
2022-08-22T23:19:39.028Z,56.14
2022-08-22T23:22:08.195Z,56.53
2022-08-22T23:24:38.969Z,57.08
2022-08-22T23:27:09.588Z,57.38
2022-08-22T23:29:40.838Z,57.93
2022-08-22T23:32:11.258Z,57.60
2022-08-22T23:34:43.809Z,58.44
2022-08-22T23:37:13.144Z,59.78
2022-08-22T23:39:43.490Z,58.56
2022-08-22T23:42:12.458Z,58.18
2022-08-22T23:44:42.161Z,57.55
2022-08-22T23:47:10.957Z,57.80
2022-08-22T23:49:40.653Z,57.76
2022-08-22T23:52:10.283Z,57.57
2022-08-22T23:54:38.646Z,57.59
2022-08-22T23:57:11.480Z,59.15
2022-08-22T23:59:46.387Z,59.73
